Time;durP1;ratioP1;P1;durP2;ratioP2;P2;SDS_P1;SDS_P2;PMS_P1;PMS_P2;Temp;Humidity;BMP_temperature;BMP_pressure;BME280_temperature;BME280_humidity;BME280_pressure;Samples;Min_cycle;Max_cycle;Signal;HPM_P1;HPM_P2
2021/11/17 02:28:21;;;;;;;23.83;22.30;;;7.50;88.40;;;;;;5013596;28;20229;-75
2021/11/17 02:31:08;;;;;;;24.52;22.85;;;7.30;89.10;;;;;;5007276;28;20195;-74
2021/11/17 02:34:01;;;;;;;28.38;25.20;;;7.40;89.30;;;;;;5011503;28;20237;-74
2021/11/17 02:36:51;;;;;;;23.73;22.05;;;7.40;91.20;;;;;;5004144;28;20197;-73
2021/11/17 02:39:37;;;;;;;23.80;22.20;;;7.40;89.70;;;;;;5004984;28;20204;-73
2021/11/17 02:42:27;;;;;;;23.67;22.15;;;7.40;89.50;;;;;;5009451;28;20209;-73
2021/11/17 02:45:18;;;;;;;22.70;21.20;;;7.30;89.60;;;;;;5010642;28;20197;-73
2021/11/17 02:48:00;;;;;;;22.85;21.35;;;7.30;90.80;;;;;;5010795;28;20216;-72
2021/11/17 02:50:52;;;;;;;23.38;21.88;;;7.30;93.40;;;;;;5008066;28;20193;-72
2021/11/17 02:53:38;;;;;;;23.85;22.25;;;7.30;92.90;;;;;;5009488;28;20210;-73
2021/11/17 02:56:21;;;;;;;23.45;21.98;;;7.30;91.80;;;;;;5013548;28;20202;-74
2021/11/17 02:59:04;;;;;;;25.10;23.30;;;7.30;91.20;;;;;;5012254;28;20285;-74
2021/11/17 03:01:47;;;;;;;23.83;22.23;;;7.40;90.00;;;;;;5012345;28;20193;-74
2021/11/17 03:04:27;;;;;;;25.38;23.02;;;7.40;91.00;;;;;;5009272;28;20241;-75
2021/11/17 03:07:07;;;;;;;23.90;22.25;;;7.40;92.10;;;;;;5012091;28;20201;-74
2021/11/17 03:09:48;;;;;;;25.10;23.20;;;7.40;92.20;;;;;;5013408;28;20560;-74
2021/11/17 03:12:44;;;;;;;24.15;22.45;;;7.40;91.60;;;;;;5011534;28;20586;-74
2021/11/17 03:15:36;;;;;;;24.33;22.63;;;7.40;91.10;;;;;;5013323;28;20196;-74
2021/11/17 03:18:32;;;;;;;25.27;23.58;;;7.40;90.80;;;;;;5009479;28;20335;-73
2021/11/17 03:21:20;;;;;;;24.40;22.70;;;7.40;90.90;;;;;;5007407;28;20364;-73
2021/11/17 03:23:59;;;;;;;23.88;22.17;;;7.50;91.30;;;;;;5005607;28;20219;-73
2021/11/17 03:26:42;;;;;;;24.48;22.80;;;7.40;91.30;;;;;;5006805;28;20312;-73
2021/11/17 03:29:29;;;;;;;24.67;23.05;;;7.40;91.00;;;;;;5013767;28;20197;-73
2021/11/17 03:32:15;;;;;;;24.88;23.08;;;7.40;91.00;;;;;;5010890;28;20204;-73
2021/11/17 03:35:00;;;;;;;26.00;23.92;;;7.50;90.70;;;;;;5006304;28;20204;-73
2021/11/17 03:37:50;;;;;;;23.80;22.10;;;7.40;90.80;;;;;;5004782;28;20645;-73
2021/11/17 03:40:53;;;;;;;24.60;22.67;;;7.30;92.30;;;;;;4987659;28;20194;-72
2021/11/17 03:43:42;;;;;;;22.90;21.40;;;7.30;92.40;;;;;;5007304;28;20638;-73
2021/11/17 03:46:42;;;;;;;23.42;21.90;;;7.20;92.40;;;;;;5011063;28;20220;-74
2021/11/17 03:49:25;;;;;;;24.20;22.60;;;7.20;92.20;;;;;;5001030;28;20754;-72
2021/11/17 03:52:09;;;;;;;23.48;22.02;;;7.20;92.70;;;;;;5008027;28;20206;-73
2021/11/17 03:55:04;;;;;;;22.90;21.35;;;7.20;93.00;;;;;;4995785;28;20206;-73
2021/11/17 03:57:49;;;;;;;24.80;23.10;;;7.20;93.80;;;;;;5003838;28;20198;-73
2021/11/17 04:00:37;;;;;;;23.38;21.67;;;7.20;93.30;;;;;;5013233;28;20280;-73
2021/11/17 04:03:24;;;;;;;24.40;22.67;;;7.30;92.70;;;;;;5011895;28;20224;-73
2021/11/17 04:06:02;;;;;;;24.55;22.63;;;7.30;92.40;;;;;;5007194;28;20205;-73
2021/11/17 04:08:43;;;;;;;25.55;23.45;;;7.20;92.30;;;;;;5014906;28;20198;-74
2021/11/17 04:11:25;;;;;;;26.77;24.98;;;7.40;92.20;;;;;;5006896;28;20198;-72
2021/11/17 04:14:01;;;;;;;24.30;22.60;;;7.30;92.10;;;;;;5009043;28;20364;-73
2021/11/17 04:16:50;;;;;;;24.30;22.60;;;7.20;92.60;;;;;;5013175;28;20199;-73
2021/11/17 04:19:28;;;;;;;25.75;23.95;;;7.20;92.70;;;;;;5008504;28;20206;-72
2021/11/17 04:22:11;;;;;;;26.30;24.50;;;7.20;92.70;;;;;;5004023;28;20197;-72
2021/11/17 04:25:03;;;;;;;26.05;24.25;;;7.20;93.00;;;;;;5008912;28;20213;-73
2021/11/17 04:27:43;;;;;;;25.45;23.55;;;7.20;93.70;;;;;;5008656;28;20198;-72
2021/11/17 04:30:57;;;;;;;24.17;22.50;;;7.20;93.30;;;;;;5007457;28;20220;-71
2021/11/17 04:33:54;;;;;;;25.30;23.50;;;7.20;92.90;;;;;;5012957;28;20595;-71
2021/11/17 04:36:47;;;;;;;28.10;26.10;;;7.20;93.10;;;;;;5008719;28;20284;-72
2021/11/17 04:39:37;;;;;;;25.35;23.33;;;7.20;92.70;;;;;;5008112;28;20217;-71
2021/11/17 04:42:36;;;;;;;25.95;24.15;;;7.20;92.90;;;;;;5007163;28;20202;-72
2021/11/17 04:45:27;;;;;;;25.77;23.75;;;7.20;92.60;;;;;;5005073;28;20682;-72
2021/11/17 04:48:13;;;;;;;26.20;24.38;;;7.20;92.60;;;;;;4996247;28;20206;-71
2021/11/17 04:50:53;;;;;;;24.60;22.98;;;7.20;92.70;;;;;;5006764;28;20198;-72
2021/11/17 04:53:37;;;;;;;25.30;23.40;;;7.20;92.60;;;;;;5015626;28;20241;-72
2021/11/17 04:56:23;;;;;;;25.70;23.88;;;7.10;92.90;;;;;;5004537;28;20194;-72
2021/11/17 04:59:10;;;;;;;25.42;23.58;;;7.10;92.90;;;;;;5007825;28;20194;-72
2021/11/17 05:02:05;;;;;;;25.15;23.45;;;7.20;92.80;;;;;;5007999;28;20205;-72
2021/11/17 05:04:58;;;;;;;25.60;23.80;;;7.10;92.60;;;;;;5005148;28;20435;-72
2021/11/17 05:07:36;;;;;;;25.42;23.65;;;7.10;92.90;;;;;;5007279;28;20285;-73
2021/11/17 05:10:15;;;;;;;25.27;23.58;;;7.10;92.80;;;;;;5011215;28;20312;-71
2021/11/17 05:12:53;;;;;;;26.55;24.67;;;7.10;92.90;;;;;;5007384;28;20225;-72
2021/11/17 05:15:32;;;;;;;26.38;24.45;;;7.10;93.00;;;;;;5006912;28;20252;-71
2021/11/17 05:18:16;;;;;;;24.80;23.10;;;7.20;92.90;;;;;;5008914;28;20202;-72
2021/11/17 05:20:54;;;;;;;25.90;24.05;;;7.20;93.00;;;;;;5005558;28;20200;-72
2021/11/17 05:23:35;;;;;;;24.05;22.30;;;7.20;93.00;;;;;;4998749;28;20720;-72
2021/11/17 05:26:14;;;;;;;25.35;23.65;;;7.20;92.70;;;;;;5006868;28;20690;-72
2021/11/17 05:29:09;;;;;;;24.35;22.85;;;7.20;92.50;;;;;;5008200;28;20575;-72
2021/11/17 05:31:59;;;;;;;25.35;23.65;;;7.20;93.10;;;;;;5004569;28;20205;-72
2021/11/17 05:34:59;;;;;;;24.10;22.63;;;7.20;94.70;;;;;;5005591;28;20259;-72
2021/11/17 05:37:38;;;;;;;26.58;24.67;;;7.20;94.20;;;;;;4998973;28;20198;-72
2021/11/17 05:40:25;;;;;;;25.93;24.33;;;7.20;93.80;;;;;;5007212;28;20514;-72
2021/11/17 05:43:03;;;;;;;24.75;22.60;;;7.50;93.10;;;;;;4995914;28;20564;-72
2021/11/17 05:45:42;;;;;;;25.08;23.20;;;7.50;92.10;;;;;;5003101;28;20204;-71
2021/11/17 05:48:20;;;;;;;25.52;23.77;;;7.40;94.20;;;;;;5005446;28;20683;-72
2021/11/17 05:51:03;;;;;;;25.55;23.80;;;7.30;96.00;;;;;;4998929;28;20218;-72
2021/11/17 05:53:42;;;;;;;24.70;22.98;;;7.40;94.10;;;;;;5000736;28;20297;-71
2021/11/17 05:56:26;;;;;;;24.08;22.48;;;7.30;93.60;;;;;;4998064;28;20275;-70
2021/11/17 05:59:13;;;;;;;25.25;23.55;;;7.30;93.20;;;;;;5006388;28;20281;-71
2021/11/17 06:01:51;;;;;;;25.10;23.60;;;7.30;92.70;;;;;;5006687;28;20198;-73
2021/11/17 06:04:18;;;;;;;25.50;23.85;;;7.20;92.50;;;;;;5003965;28;20699;-72
2021/11/17 06:06:45;;;;;;;26.40;24.30;;;7.20;91.90;;;;;;5008076;28;20201;-72
2021/11/17 06:09:11;;;;;;;23.27;21.58;;;7.10;91.70;;;;;;5007859;28;20197;-73
2021/11/17 06:11:44;;;;;;;26.20;24.20;;;7.00;92.20;;;;;;5007933;28;20680;-74
2021/11/17 06:14:16;;;;;;;26.58;24.77;;;6.80;92.70;;;;;;5007313;28;20221;-74
2021/11/17 06:16:47;;;;;;;26.50;24.75;;;6.80;92.80;;;;;;5009448;28;20213;-75
2021/11/17 06:19:15;;;;;;;24.20;22.63;;;6.70;91.90;;;;;;5012517;28;20755;-74
2021/11/17 06:21:43;;;;;;;25.30;23.38;;;6.70;92.30;;;;;;5010411;28;20202;-74
2021/11/17 06:24:14;;;;;;;23.52;21.92;;;6.80;92.40;;;;;;5012025;28;20253;-74
2021/11/17 06:26:45;;;;;;;23.67;22.10;;;6.90;91.80;;;;;;5011513;28;20726;-75
2021/11/17 06:29:16;;;;;;;24.55;22.83;;;6.90;91.40;;;;;;5010016;28;20470;-74
2021/11/17 06:31:44;;;;;;;24.42;22.92;;;7.00;91.80;;;;;;5011061;28;20198;-74
2021/11/17 06:34:32;;;;;;;23.08;21.55;;;6.90;91.40;;;;;;5009255;28;20206;-74
2021/11/17 06:37:00;;;;;;;25.15;23.42;;;6.80;91.40;;;;;;5010925;28;20194;-75
2021/11/17 06:39:28;;;;;;;24.70;22.98;;;6.70;91.40;;;;;;5012109;28;20652;-75
2021/11/17 06:41:57;;;;;;;24.25;22.60;;;6.70;91.80;;;;;;5005408;28;20324;-74
2021/11/17 06:44:24;;;;;;;23.05;21.55;;;6.60;91.90;;;;;;5005816;28;20225;-74
2021/11/17 06:46:52;;;;;;;24.77;23.08;;;6.70;91.90;;;;;;5010460;28;20201;-73
2021/11/17 06:49:20;;;;;;;24.00;22.40;;;6.80;91.80;;;;;;5012560;28;20228;-75
2021/11/17 06:51:47;;;;;;;23.58;21.92;;;6.90;91.40;;;;;;5006177;28;20435;-74
2021/11/17 06:54:14;;;;;;;24.23;22.63;;;6.90;91.40;;;;;;5010830;28;20222;-74
2021/11/17 06:56:41;;;;;;;26.02;24.38;;;6.90;91.40;;;;;;5010773;28;20216;-74
2021/11/17 06:59:09;;;;;;;25.70;24.00;;;7.00;91.20;;;;;;5011238;28;20208;-76
2021/11/17 07:01:36;;;;;;;24.02;22.52;;;6.90;90.90;;;;;;5009503;28;21142;-74
2021/11/17 07:04:04;;;;;;;24.55;22.85;;;6.80;91.60;;;;;;5009675;28;21005;-73
2021/11/17 07:06:31;;;;;;;25.08;23.38;;;6.90;91.50;;;;;;5009853;28;20198;-73
2021/11/17 07:08:58;;;;;;;24.05;22.15;;;6.90;91.80;;;;;;5011680;28;20292;-73
2021/11/17 07:11:25;;;;;;;24.85;23.10;;;7.00;91.90;;;;;;5009338;28;20277;-73
2021/11/17 07:13:54;;;;;;;27.15;25.38;;;7.10;91.80;;;;;;5009817;28;20220;-73
2021/11/17 07:16:22;;;;;;;23.63;21.95;;;7.20;91.70;;;;;;5008178;28;20212;-73
2021/11/17 07:18:49;;;;;;;24.30;22.70;;;7.10;91.80;;;;;;5010128;28;20201;-73
2021/11/17 07:21:16;;;;;;;23.15;21.75;;;7.10;91.80;;;;;;5010076;28;20702;-75
2021/11/17 07:23:46;;;;;;;23.98;22.48;;;7.20;92.00;;;;;;5006919;28;20226;-75
2021/11/17 07:26:13;;;;;;;24.55;22.95;;;7.20;91.80;;;;;;5009601;28;20559;-77
2021/11/17 07:28:41;;;;;;;23.95;22.40;;;7.20;91.50;;;;;;5010776;28;20202;-75
2021/11/17 07:31:12;;;;;;;23.75;22.15;;;7.20;91.70;;;;;;5009445;28;20210;-75
2021/11/17 07:33:41;;;;;;;23.77;22.27;;;7.30;91.70;;;;;;5010026;28;20206;-76
2021/11/17 07:36:08;;;;;;;24.98;23.15;;;7.30;91.70;;;;;;5008165;28;20726;-75
2021/11/17 07:38:35;;;;;;;24.60;23.10;;;7.30;91.70;;;;;;5010236;28;20216;-74
2021/11/17 07:41:02;;;;;;;25.88;24.08;;;7.40;91.30;;;;;;5009143;28;20205;-75
2021/11/17 07:43:30;;;;;;;23.67;22.08;;;7.40;91.00;;;;;;5008406;28;20240;-75
2021/11/17 07:45:57;;;;;;;23.48;21.98;;;7.40;90.70;;;;;;5007005;28;20221;-74
2021/11/17 07:48:27;;;;;;;24.48;22.73;;;7.30;91.00;;;;;;5010033;28;20234;-76
2021/11/17 07:50:57;;;;;;;26.30;24.52;;;7.30;90.80;;;;;;5007772;28;20785;-75
2021/11/17 07:53:26;;;;;;;24.30;22.80;;;7.30;91.00;;;;;;5009115;28;20226;-74
2021/11/17 07:55:55;;;;;;;24.92;23.45;;;7.30;91.10;;;;;;5008458;28;20204;-75
2021/11/17 07:58:26;;;;;;;23.55;21.92;;;7.40;90.80;;;;;;5011273;28;20202;-75
2021/11/17 08:00:55;;;;;;;24.15;22.65;;;7.40;90.80;;;;;;5009855;28;20579;-75
2021/11/17 08:03:25;;;;;;;23.30;21.80;;;7.40;90.80;;;;;;5009743;28;20224;-75
2021/11/17 08:05:54;;;;;;;25.70;23.95;;;7.50;89.70;;;;;;5008694;28;20297;-73
2021/11/17 08:08:23;;;;;;;23.63;22.13;;;7.50;89.10;;;;;;5010973;28;20755;-75
2021/11/17 08:10:51;;;;;;;24.63;23.13;;;7.50;88.90;;;;;;5009053;28;20204;-75
2021/11/17 08:13:18;;;;;;;24.02;22.33;;;7.50;89.50;;;;;;5010790;28;20226;-75
2021/11/17 08:15:45;;;;;;;27.15;25.45;;;7.50;89.30;;;;;;5007068;28;20850;-75
2021/11/17 08:18:15;;;;;;;26.20;24.40;;;7.50;89.30;;;;;;5010487;28;20292;-75
2021/11/17 08:20:42;;;;;;;25.10;23.30;;;7.50;89.90;;;;;;5007380;28;20195;-75
2021/11/17 08:23:09;;;;;;;23.02;21.63;;;7.70;89.80;;;;;;5009502;28;20230;-74
2021/11/17 08:25:39;;;;;;;22.45;21.08;;;7.80;90.10;;;;;;5008880;28;20234;-75
2021/11/17 08:28:09;;;;;;;22.35;20.95;;;8.00;92.60;;;;;;5009969;28;20210;-75
2021/11/17 08:30:37;;;;;;;23.70;22.15;;;8.00;90.10;;;;;;5008609;28;20625;-75
2021/11/17 08:33:05;;;;;;;22.80;21.40;;;8.20;88.70;;;;;;5009307;28;20226;-73
2021/11/17 08:35:32;;;;;;;23.55;22.05;;;8.20;89.30;;;;;;5008630;28;20258;-74
2021/11/17 08:38:00;;;;;;;22.70;21.40;;;8.30;87.90;;;;;;5008065;28;20198;-73
2021/11/17 08:40:29;;;;;;;23.60;21.88;;;8.20;89.00;;;;;;5021577;28;20204;-72
2021/11/17 08:42:58;;;;;;;94.65;24.25;;;8.30;89.10;;;;;;5009903;28;20719;-72
2021/11/17 08:45:26;;;;;;;24.45;22.95;;;8.30;93.30;;;;;;5008021;28;20221;-72
2021/11/17 08:47:54;;;;;;;22.80;21.42;;;8.30;91.20;;;;;;5006999;28;20210;-72
2021/11/17 08:50:24;;;;;;;24.50;22.90;;;8.30;89.40;;;;;;5008899;28;20932;-74
2021/11/17 08:52:52;;;;;;;21.73;20.42;;;8.30;87.70;;;;;;4997232;28;20248;-74
2021/11/17 08:55:20;;;;;;;23.10;21.70;;;8.40;85.80;;;;;;5008481;28;20313;-73
2021/11/17 08:57:47;;;;;;;24.73;23.13;;;8.30;85.80;;;;;;5009235;28;20559;-73
2021/11/17 09:00:18;;;;;;;22.95;21.55;;;8.40;87.00;;;;;;5008709;28;20205;-73
2021/11/17 09:02:47;;;;;;;22.98;21.60;;;8.40;85.20;;;;;;5009576;28;20345;-73
2021/11/17 09:05:16;;;;;;;24.27;23.08;;;8.20;83.70;;;;;;5009659;28;20228;-73
2021/11/17 09:07:45;;;;;;;22.75;21.45;;;8.00;83.40;;;;;;5006520;28;20194;-74
2021/11/17 09:10:14;;;;;;;23.92;22.50;;;7.70;84.70;;;;;;5009987;28;20285;-73
2021/11/17 09:12:41;;;;;;;23.30;21.90;;;7.30;84.90;;;;;;5007943;28;20214;-72
2021/11/17 09:15:09;;;;;;;21.55;20.45;;;7.10;86.20;;;;;;5008705;28;20670;-74
2021/11/17 09:17:40;;;;;;;23.15;21.88;;;7.00;86.90;;;;;;5008080;28;20198;-73
2021/11/17 09:20:08;;;;;;;22.75;21.50;;;6.70;87.20;;;;;;5008343;28;20568;-73
2021/11/17 09:22:36;;;;;;;20.88;19.83;;;6.70;87.80;;;;;;5008466;28;20266;-72
2021/11/17 09:25:06;;;;;;;21.48;20.27;;;6.70;87.90;;;;;;5007907;28;20395;-74
2021/11/17 09:27:33;;;;;;;20.20;19.05;;;6.70;88.30;;;;;;5006654;28;20201;-73
2021/11/17 09:30:01;;;;;;;20.85;19.75;;;6.60;88.60;;;;;;5008933;28;20288;-73
2021/11/17 09:32:31;;;;;;;20.38;19.35;;;6.60;89.40;;;;;;5004184;28;20212;-74
2021/11/17 09:35:01;;;;;;;20.75;19.65;;;6.70;89.00;;;;;;5008349;28;20932;-73
2021/11/17 09:37:28;;;;;;;20.70;19.60;;;6.80;89.00;;;;;;5005735;28;20208;-73
2021/11/17 09:39:56;;;;;;;22.08;19.88;;;6.80;88.50;;;;;;5009642;28;20202;-73
2021/11/17 09:42:23;;;;;;;18.55;17.65;;;6.80;88.20;;;;;;5007415;28;20549;-75
2021/11/17 09:44:53;;;;;;;20.20;19.05;;;6.80;89.00;;;;;;5006883;28;20316;-73
2021/11/17 09:47:23;;;;;;;20.27;19.27;;;7.00;88.40;;;;;;5007360;28;20198;-74
2021/11/17 09:49:55;;;;;;;20.10;19.00;;;7.20;87.60;;;;;;5009056;28;20206;-73
2021/11/17 09:52:26;;;;;;;18.95;18.00;;;7.20;88.70;;;;;;5006924;28;20206;-73
2021/11/17 09:54:57;;;;;;;19.85;18.60;;;7.40;87.80;;;;;;5008460;28;20731;-74
2021/11/17 09:57:27;;;;;;;21.60;20.40;;;7.50;86.70;;;;;;5006997;28;20202;-75
2021/11/17 10:00:11;;;;;;;21.35;20.25;;;7.50;86.10;;;;;;5009375;28;20283;-74
2021/11/17 10:02:43;;;;;;;20.27;19.27;;;7.60;85.80;;;;;;5014566;28;20228;-75
2021/11/17 10:05:13;;;;;;;20.60;19.60;;;7.60;85.60;;;;;;5014440;28;20216;-74
2021/11/17 10:08:10;;;;;;;19.92;18.92;;;7.60;85.50;;;;;;5009638;28;20198;-75
2021/11/17 10:13:33;;;;;;;21.50;20.40;;;7.70;85.40;;;;;;5009569;28;20767;-74
2021/11/17 10:16:00;;;;;;;287.92;46.53;;;7.70;84.10;;;;;;5003222;28;20226;-76
2021/11/17 10:18:37;;;;;;;20.15;19.05;;;7.60;84.70;;;;;;4990499;28;20684;-75
2021/11/17 10:21:10;;;;;;;21.38;20.27;;;7.70;85.50;;;;;;5007720;28;20279;-75
2021/11/17 10:23:55;;;;;;;23.15;21.75;;;7.80;84.80;;;;;;5008695;28;20226;-75
2021/11/17 10:26:23;;;;;;;22.95;21.75;;;7.90;83.70;;;;;;4997525;28;20209;-75
2021/11/17 10:28:52;;;;;;;20.98;19.83;;;8.00;83.50;;;;;;5008337;28;20193;-74
2021/11/17 10:31:23;;;;;;;22.42;21.23;;;7.90;82.60;;;;;;5000390;28;20210;-76
2021/11/17 10:34:11;;;;;;;20.98;19.95;;;8.00;82.60;;;;;;5005634;28;20232;-74
2021/11/17 10:36:50;;;;;;;21.35;20.25;;;8.00;82.40;;;;;;5003806;28;20194;-74
2021/11/17 10:39:21;;;;;;;21.23;20.13;;;7.90;84.30;;;;;;5008429;28;20212;-73
2021/11/17 10:41:58;;;;;;;20.85;19.75;;;8.00;84.40;;;;;;5001437;28;20201;-73
2021/11/17 10:44:46;;;;;;;20.95;19.95;;;8.20;81.60;;;;;;5005707;28;20273;-74
2021/11/17 10:47:18;;;;;;;21.85;20.65;;;8.10;82.40;;;;;;5004463;28;20194;-72
2021/11/17 10:49:47;;;;;;;22.00;20.60;;;8.30;82.10;;;;;;5007705;28;20198;-72
2021/11/17 10:52:24;;;;;;;22.83;21.63;;;8.50;81.10;;;;;;5007135;28;20198;-72
2021/11/17 10:54:54;;;;;;;22.70;21.20;;;8.70;81.90;;;;;;5008124;28;20281;-72
2021/11/17 10:57:25;;;;;;;22.95;21.75;;;9.00;82.40;;;;;;5007253;28;20533;-73
2021/11/17 10:59:58;;;;;;;22.77;21.57;;;9.10;81.60;;;;;;5008241;28;20206;-74
2021/11/17 11:02:28;;;;;;;24.65;23.25;;;9.20;79.10;;;;;;5006912;28;20464;-73
2021/11/17 11:04:59;;;;;;;24.27;22.98;;;9.20;78.60;;;;;;5010126;28;20252;-74
2021/11/17 11:07:44;;;;;;;22.80;21.60;;;9.00;79.60;;;;;;5010375;28;20544;-73
2021/11/17 11:10:22;;;;;;;22.90;21.77;;;8.80;78.50;;;;;;5011562;28;20201;-74
2021/11/17 11:12:50;;;;;;;22.23;20.95;;;8.30;78.20;;;;;;4999317;28;20313;-74
2021/11/17 11:15:22;;;;;;;23.08;21.88;;;8.30;82.70;;;;;;5009148;28;20531;-72
2021/11/17 11:18:25;;;;;;;22.45;21.35;;;8.50;81.70;;;;;;5011490;28;20293;-70
2021/11/17 11:20:54;;;;;;;22.90;21.60;;;8.80;80.70;;;;;;5009789;28;20201;-72
2021/11/17 11:23:30;;;;;;;22.23;21.02;;;9.00;78.60;;;;;;5010260;28;20321;-73
2021/11/17 11:26:12;;;;;;;23.45;22.25;;;9.10;76.40;;;;;;5005693;28;20225;-73
2021/11/17 11:28:42;;;;;;;23.95;22.65;;;9.00;75.70;;;;;;5005692;28;20226;-73
2021/11/17 11:31:37;;;;;;;23.23;22.02;;;8.70;76.90;;;;;;5009922;28;20196;-73
2021/11/17 11:34:31;;;;;;;21.52;20.42;;;8.60;77.40;;;;;;5010158;28;20297;-72
2021/11/17 11:36:59;;;;;;;23.00;21.70;;;8.60;77.50;;;;;;5009473;28;20208;-71
2021/11/17 11:39:38;;;;;;;22.38;21.27;;;8.50;77.10;;;;;;5010738;28;20206;-72
2021/11/17 11:42:23;;;;;;;22.25;21.15;;;8.60;78.10;;;;;;5009753;28;20201;-71
2021/11/17 11:44:53;;;;;;;22.35;21.25;;;8.80;77.40;;;;;;5007355;28;20686;-73
2021/11/17 11:47:55;;;;;;;25.77;24.58;;;8.90;77.00;;;;;;5005813;28;20196;-73
2021/11/17 11:50:59;;;;;;;21.95;20.85;;;8.80;76.40;;;;;;5006048;28;20747;-76
2021/11/17 11:54:05;;;;;;;22.90;21.70;;;8.50;75.10;;;;;;5003110;28;20217;-73
2021/11/17 11:56:43;;;;;;;22.42;21.33;;;8.00;76.30;;;;;;5010092;28;20197;-74
2021/11/17 11:59:14;;;;;;;23.42;22.23;;;8.00;77.50;;;;;;5010880;28;20233;-73
2021/11/17 12:01:42;;;;;;;23.40;22.08;;;8.00;77.40;;;;;;5007732;28;20225;-76
2021/11/17 12:04:14;;;;;;;22.30;21.20;;;8.00;77.50;;;;;;5009456;28;20218;-74
2021/11/17 12:06:48;;;;;;;21.65;20.55;;;8.10;77.20;;;;;;5007444;28;20222;-73
2021/11/17 12:09:32;;;;;;;22.73;21.52;;;8.10;77.70;;;;;;5011477;28;20198;-77
2021/11/17 12:12:02;;;;;;;21.80;20.70;;;8.20;78.80;;;;;;4998645;28;20209;-74
2021/11/17 12:14:38;;;;;;;23.15;21.70;;;8.20;77.10;;;;;;5009760;28;20303;-75
2021/11/17 12:17:08;;;;;;;23.13;22.00;;;8.20;77.40;;;;;;5009459;28;20198;-75
2021/11/17 12:19:39;;;;;;;24.08;22.88;;;8.20;77.40;;;;;;5009922;28;20292;-75
2021/11/17 12:22:11;;;;;;;22.58;21.30;;;8.20;77.70;;;;;;4996824;28;20213;-76
2021/11/17 12:24:40;;;;;;;22.08;20.95;;;8.20;78.00;;;;;;5010044;28;20301;-76
2021/11/17 12:27:09;;;;;;;23.10;21.80;;;8.10;79.70;;;;;;5009788;28;20312;-75
2021/11/17 12:29:54;;;;;;;22.13;21.05;;;8.00;78.90;;;;;;5007734;28;20200;-75
2021/11/17 12:32:27;;;;;;;22.98;21.88;;;7.70;79.70;;;;;;5006130;28;20202;-74
2021/11/17 12:35:03;;;;;;;22.23;21.05;;;7.60;80.10;;;;;;5009562;28;20202;-74
2021/11/17 12:37:33;;;;;;;21.83;20.70;;;7.70;80.90;;;;;;5007904;28;20606;-73
2021/11/17 12:40:04;;;;;;;22.65;21.55;;;7.70;79.70;;;;;;5010292;28;20229;-75
2021/11/17 12:42:35;;;;;;;20.98;19.55;;;7.70;80.90;;;;;;5008658;28;20632;-75
2021/11/17 12:45:17;;;;;;;20.70;19.60;;;7.90;81.60;;;;;;5004961;28;20197;-75
2021/11/17 12:47:56;;;;;;;21.90;20.80;;;8.10;79.30;;;;;;5006866;28;20208;-76
2021/11/17 12:50:32;;;;;;;20.73;19.65;;;8.10;79.50;;;;;;5007969;28;20225;-75
2021/11/17 12:53:07;;;;;;;22.40;21.20;;;8.20;78.50;;;;;;5017264;28;20218;-76
2021/11/17 12:55:41;;;;;;;21.58;20.48;;;8.20;78.50;;;;;;5010871;28;20622;-77
2021/11/17 12:58:10;;;;;;;21.70;20.55;;;8.00;78.90;;;;;;5010089;28;20201;-76
2021/11/17 13:00:48;;;;;;;22.17;21.08;;;7.90;79.30;;;;;;5003872;28;20313;-74
2021/11/17 13:03:36;;;;;;;23.15;22.05;;;7.80;79.70;;;;;;5007027;28;20219;-74
2021/11/17 13:06:07;;;;;;;21.13;19.90;;;7.70;80.20;;;;;;5006286;28;20319;-74
2021/11/17 13:08:36;;;;;;;22.50;21.30;;;7.60;80.70;;;;;;5011675;28;20212;-74
2021/11/17 13:11:13;;;;;;;22.75;21.65;;;7.70;80.70;;;;;;5006736;28;20208;-75
2021/11/17 13:13:47;;;;;;;22.15;20.95;;;7.80;80.30;;;;;;5007501;28;20217;-77
2021/11/17 13:16:21;;;;;;;21.35;20.25;;;7.90;79.60;;;;;;5009463;28;20198;-77
2021/11/17 13:18:55;;;;;;;22.00;21.00;;;7.60;80.10;;;;;;5019286;28;20607;-77
2021/11/17 13:21:35;;;;;;;22.30;21.20;;;7.60;80.30;;;;;;5011388;28;20687;-77
2021/11/17 13:24:27;;;;;;;23.58;22.38;;;7.40;80.80;;;;;;5016424;28;20255;-77
2021/11/17 13:27:18;;;;;;;21.83;20.73;;;7.50;81.10;;;;;;5004143;28;20714;-75
2021/11/17 13:29:51;;;;;;;22.55;21.35;;;7.30;81.70;;;;;;5018883;28;20829;-77
2021/11/17 13:32:26;;;;;;;22.15;21.05;;;7.40;81.80;;;;;;5005905;28;20284;-75
2021/11/17 13:34:55;;;;;;;24.08;22.95;;;7.60;80.60;;;;;;5008116;28;20204;-75
2021/11/17 13:37:34;;;;;;;22.48;21.38;;;7.80;79.90;;;;;;5015044;28;20201;-76
2021/11/17 13:40:05;;;;;;;22.60;21.50;;;7.80;82.40;;;;;;5010638;28;20202;-76
2021/11/17 13:42:32;;;;;;;23.73;22.45;;;7.80;79.10;;;;;;5013829;28;20204;-76
2021/11/17 13:45:00;;;;;;;22.85;21.65;;;7.90;79.50;;;;;;5010477;28;20202;-75
2021/11/17 13:47:30;;;;;;;23.95;22.75;;;7.90;79.40;;;;;;5009281;28;20717;-75
2021/11/17 13:49:59;;;;;;;22.75;21.55;;;7.90;78.60;;;;;;5009105;28;20194;-74
2021/11/17 13:52:31;;;;;;;23.77;22.48;;;7.70;79.00;;;;;;5007069;28;20307;-75
2021/11/17 13:54:58;;;;;;;23.27;21.92;;;7.70;80.70;;;;;;5010801;28;20244;-75
2021/11/17 13:57:26;;;;;;;22.73;21.52;;;7.80;82.50;;;;;;5005244;28;20464;-72
2021/11/17 13:59:53;;;;;;;23.25;22.10;;;7.90;80.10;;;;;;5009501;28;20978;-74
2021/11/17 14:02:21;;;;;;;26.73;25.02;;;8.00;79.10;;;;;;5006719;28;20615;-73
2021/11/17 14:04:49;;;;;;;22.85;21.65;;;7.90;78.40;;;;;;5007427;28;20202;-74
2021/11/17 14:07:19;;;;;;;22.92;21.65;;;7.90;78.50;;;;;;5006860;28;20622;-73
2021/11/17 14:09:46;;;;;;;23.50;22.40;;;7.70;78.80;;;;;;5008178;28;20225;-73
2021/11/17 14:12:14;;;;;;;23.98;22.67;;;7.70;78.80;;;;;;5006394;28;20685;-73
2021/11/17 14:14:42;;;;;;;22.20;21.10;;;7.80;79.20;;;;;;5007381;28;20198;-73
2021/11/17 14:17:09;;;;;;;24.70;23.40;;;7.80;79.50;;;;;;5006733;28;20285;-73
2021/11/17 14:19:37;;;;;;;23.42;22.23;;;7.70;79.30;;;;;;5011018;28;20198;-72
2021/11/17 14:22:06;;;;;;;23.70;22.20;;;7.60;79.60;;;;;;5006189;28;20197;-73
2021/11/17 14:24:33;;;;;;;23.83;22.60;;;7.50;80.50;;;;;;5014983;28;20222;-72
2021/11/17 14:27:01;;;;;;;23.65;22.27;;;7.50;80.80;;;;;;5005900;28;20233;-72
2021/11/17 14:29:34;;;;;;;23.30;22.00;;;7.70;81.90;;;;;;5011130;28;20292;-72
2021/11/17 14:32:08;;;;;;;23.20;22.00;;;7.70;81.20;;;;;;5006051;28;20272;-74
2021/11/17 14:34:35;;;;;;;23.23;21.92;;;7.80;80.80;;;;;;5007278;28;20950;-72
2021/11/17 14:37:05;;;;;;;24.23;22.92;;;8.00;79.90;;;;;;5001444;28;20289;-73
2021/11/17 14:39:34;;;;;;;23.90;22.40;;;8.00;79.60;;;;;;5012462;28;20190;-72
2021/11/17 14:42:02;;;;;;;22.70;21.40;;;8.10;80.10;;;;;;5012281;28;20315;-72
2021/11/17 14:44:30;;;;;;;23.77;22.25;;;8.10;79.30;;;;;;5010763;28;20591;-72
2021/11/17 14:46:57;;;;;;;24.60;23.20;;;7.90;80.00;;;;;;5004430;28;20220;-72
2021/11/17 14:49:24;;;;;;;23.85;22.35;;;7.90;82.90;;;;;;5009765;28;20202;-72
2021/11/17 14:51:51;;;;;;;24.77;23.38;;;8.00;81.80;;;;;;5008758;28;20208;-72
2021/11/17 14:54:21;;;;;;;24.85;23.42;;;8.10;80.70;;;;;;5005110;28;20321;-72
2021/11/17 14:56:49;;;;;;;23.85;22.45;;;8.00;80.60;;;;;;5006600;28;20196;-72
2021/11/17 14:59:16;;;;;;;24.42;23.02;;;8.10;80.30;;;;;;5005818;28;20320;-72
2021/11/17 15:01:46;;;;;;;23.60;22.27;;;8.10;80.40;;;;;;4999241;28;20204;-72
2021/11/17 15:04:14;;;;;;;24.17;22.88;;;8.20;79.70;;;;;;5006562;28;20222;-72
2021/11/17 15:06:42;;;;;;;24.50;23.10;;;8.20;79.60;;;;;;5008083;28;20588;-72
2021/11/17 15:09:12;;;;;;;25.83;24.33;;;8.30;79.30;;;;;;5009561;28;20313;-72
2021/11/17 15:11:52;;;;;;;24.23;22.83;;;8.20;79.30;;;;;;5005125;28;20202;-72
2021/11/17 15:14:21;;;;;;;24.85;23.35;;;8.20;79.60;;;;;;5008212;28;20699;-72
2021/11/17 15:16:49;;;;;;;24.95;23.55;;;8.10;79.40;;;;;;5009130;28;20256;-72
2021/11/17 15:19:19;;;;;;;24.02;22.73;;;8.10;79.60;;;;;;5009335;28;20202;-72
2021/11/17 15:21:46;;;;;;;22.77;21.48;;;8.10;79.50;;;;;;5009930;28;20281;-72
2021/11/17 15:24:13;;;;;;;23.63;22.33;;;7.90;79.80;;;;;;5000388;28;20225;-72
2021/11/17 15:26:53;;;;;;;25.65;24.17;;;7.80;80.30;;;;;;5007461;28;20213;-71
2021/11/17 15:29:21;;;;;;;23.05;21.77;;;7.80;80.70;;;;;;5011004;28;20683;-71
2021/11/17 15:31:48;;;;;;;23.65;22.33;;;7.80;81.00;;;;;;5008237;28;20224;-71
2021/11/17 15:34:15;;;;;;;23.75;22.48;;;7.80;80.90;;;;;;5005478;28;20224;-72
2021/11/17 15:36:42;;;;;;;22.70;21.40;;;7.80;80.70;;;;;;5004656;28;20340;-73
2021/11/17 15:39:10;;;;;;;23.65;22.38;;;7.80;81.40;;;;;;5009216;28;20201;-73
2021/11/17 15:41:39;;;;;;;24.45;23.13;;;7.70;82.20;;;;;;5009776;28;20201;-73
2021/11/17 15:44:08;;;;;;;22.75;21.45;;;7.80;81.90;;;;;;5007513;28;20276;-73
2021/11/17 15:46:37;;;;;;;24.48;23.08;;;7.90;83.50;;;;;;5012068;28;20217;-72